sensor_id;sensor_type;location;lat;lon;timestamp;temperature;humidity
9564;DHT22;4820;50.870;4.702;2023-03-14T00:00:48;12.00;99.90
9564;DHT22;4820;50.870;4.702;2023-03-14T00:03:14;12.00;99.90
9564;DHT22;4820;50.870;4.702;2023-03-14T00:05:39;12.00;99.90
9564;DHT22;4820;50.870;4.702;2023-03-14T00:08:05;12.00;99.90
9564;DHT22;4820;50.870;4.702;2023-03-14T00:10:31;12.00;99.90
9564;DHT22;4820;50.870;4.702;2023-03-14T00:12:56;11.90;99.90
9564;DHT22;4820;50.870;4.702;2023-03-14T00:15:24;11.90;99.90
9564;DHT22;4820;50.870;4.702;2023-03-14T00:17:50;11.90;99.90
9564;DHT22;4820;50.870;4.702;2023-03-14T00:20:15;11.90;99.90
9564;DHT22;4820;50.870;4.702;2023-03-14T00:22:42;11.90;99.90
9564;DHT22;4820;50.870;4.702;2023-03-14T00:25:11;11.80;99.90
9564;DHT22;4820;50.870;4.702;2023-03-14T00:27:37;11.80;99.90
9564;DHT22;4820;50.870;4.702;2023-03-14T00:30:05;11.80;99.90
9564;DHT22;4820;50.870;4.702;2023-03-14T00:32:31;11.70;99.90
9564;DHT22;4820;50.870;4.702;2023-03-14T00:34:56;11.70;99.90
9564;DHT22;4820;50.870;4.702;2023-03-14T00:37:22;11.70;99.90
9564;DHT22;4820;50.870;4.702;2023-03-14T00:39:48;11.50;99.90
9564;DHT22;4820;50.870;4.702;2023-03-14T00:42:14;11.60;99.90
9564;DHT22;4820;50.870;4.702;2023-03-14T00:44:39;11.50;99.90
9564;DHT22;4820;50.870;4.702;2023-03-14T00:47:05;11.50;99.90
9564;DHT22;4820;50.870;4.702;2023-03-14T00:49:31;11.50;99.90
9564;DHT22;4820;50.870;4.702;2023-03-14T00:51:58;11.50;99.90
9564;DHT22;4820;50.870;4.702;2023-03-14T00:54:24;11.60;99.90
9564;DHT22;4820;50.870;4.702;2023-03-14T00:56:50;11.50;99.90
9564;DHT22;4820;50.870;4.702;2023-03-14T00:59:16;11.50;99.90
9564;DHT22;4820;50.870;4.702;2023-03-14T01:01:43;11.50;99.90
9564;DHT22;4820;50.870;4.702;2023-03-14T01:04:09;11.50;99.90
9564;DHT22;4820;50.870;4.702;2023-03-14T01:06:35;11.50;99.90
9564;DHT22;4820;50.870;4.702;2023-03-14T01:09:01;11.50;99.90
9564;DHT22;4820;50.870;4.702;2023-03-14T01:11:30;11.50;99.90
9564;DHT22;4820;50.870;4.702;2023-03-14T01:13:57;11.40;99.90
9564;DHT22;4820;50.870;4.702;2023-03-14T01:16:24;11.50;99.90
9564;DHT22;4820;50.870;4.702;2023-03-14T01:18:50;11.50;99.90
9564;DHT22;4820;50.870;4.702;2023-03-14T01:21:23;11.50;99.90
9564;DHT22;4820;50.870;4.702;2023-03-14T01:23:50;11.50;99.90
9564;DHT22;4820;50.870;4.702;2023-03-14T01:26:19;11.50;99.90
9564;DHT22;4820;50.870;4.702;2023-03-14T01:28:46;11.50;99.90
9564;DHT22;4820;50.870;4.702;2023-03-14T01:31:12;11.50;99.90
9564;DHT22;4820;50.870;4.702;2023-03-14T01:33:39;11.40;99.90
9564;DHT22;4820;50.870;4.702;2023-03-14T01:36:07;11.40;99.90
9564;DHT22;4820;50.870;4.702;2023-03-14T01:38:35;11.40;99.90
9564;DHT22;4820;50.870;4.702;2023-03-14T01:41:02;11.40;99.90
9564;DHT22;4820;50.870;4.702;2023-03-14T01:43:28;11.30;99.90
9564;DHT22;4820;50.870;4.702;2023-03-14T01:51:08;11.20;99.90
9564;DHT22;4820;50.870;4.702;2023-03-14T01:53:35;11.10;99.90
9564;DHT22;4820;50.870;4.702;2023-03-14T01:56:02;11.10;99.90
9564;DHT22;4820;50.870;4.702;2023-03-14T01:58:30;11.10;99.90
9564;DHT22;4820;50.870;4.702;2023-03-14T02:00:58;11.10;99.90
9564;DHT22;4820;50.870;4.702;2023-03-14T02:03:25;11.00;99.90
9564;DHT22;4820;50.870;4.702;2023-03-14T02:05:53;11.00;99.90
9564;DHT22;4820;50.870;4.702;2023-03-14T02:08:22;11.10;99.90
9564;DHT22;4820;50.870;4.702;2023-03-14T02:10:49;11.10;99.90
9564;DHT22;4820;50.870;4.702;2023-03-14T02:13:17;11.00;99.90
9564;DHT22;4820;50.870;4.702;2023-03-14T02:15:44;11.00;99.90
9564;DHT22;4820;50.870;4.702;2023-03-14T02:18:10;10.90;99.90
9564;DHT22;4820;50.870;4.702;2023-03-14T02:20:45;10.80;99.90
9564;DHT22;4820;50.870;4.702;2023-03-14T02:23:18;10.70;99.90
9564;DHT22;4820;50.870;4.702;2023-03-14T02:28:13;10.50;99.90
9564;DHT22;4820;50.870;4.702;2023-03-14T02:30:43;10.40;99.90
9564;DHT22;4820;50.870;4.702;2023-03-14T02:33:20;10.30;99.90
9564;DHT22;4820;50.870;4.702;2023-03-14T02:36:04;10.20;99.90
9564;DHT22;4820;50.870;4.702;2023-03-14T02:38:39;10.10;99.90
9564;DHT22;4820;50.870;4.702;2023-03-14T02:41:07;10.10;99.90
9564;DHT22;4820;50.870;4.702;2023-03-14T02:43:33;10.00;99.90
9564;DHT22;4820;50.870;4.702;2023-03-14T02:46:00;10.00;99.90
9564;DHT22;4820;50.870;4.702;2023-03-14T02:48:33;10.00;99.90
9564;DHT22;4820;50.870;4.702;2023-03-14T02:51:00;9.90;99.90
9564;DHT22;4820;50.870;4.702;2023-03-14T02:53:28;9.90;99.90
9564;DHT22;4820;50.870;4.702;2023-03-14T02:55:55;9.90;99.90
9564;DHT22;4820;50.870;4.702;2023-03-14T02:58:21;9.80;99.90
9564;DHT22;4820;50.870;4.702;2023-03-14T03:00:48;9.80;99.90
9564;DHT22;4820;50.870;4.702;2023-03-14T03:03:14;9.90;99.90
9564;DHT22;4820;50.870;4.702;2023-03-14T03:05:40;9.80;99.90
9564;DHT22;4820;50.870;4.702;2023-03-14T03:08:06;10.00;99.90
9564;DHT22;4820;50.870;4.702;2023-03-14T03:10:33;9.90;99.90
9564;DHT22;4820;50.870;4.702;2023-03-14T03:13:01;9.90;99.90
9564;DHT22;4820;50.870;4.702;2023-03-14T03:15:28;9.90;99.90
9564;DHT22;4820;50.870;4.702;2023-03-14T03:17:54;10.00;99.90
9564;DHT22;4820;50.870;4.702;2023-03-14T03:20:19;10.00;99.90
9564;DHT22;4820;50.870;4.702;2023-03-14T03:22:45;10.00;99.90
9564;DHT22;4820;50.870;4.702;2023-03-14T03:25:11;10.00;99.90
9564;DHT22;4820;50.870;4.702;2023-03-14T03:27:37;10.00;99.90
9564;DHT22;4820;50.870;4.702;2023-03-14T03:30:05;10.00;99.90
9564;DHT22;4820;50.870;4.702;2023-03-14T03:32:31;10.00;99.90
9564;DHT22;4820;50.870;4.702;2023-03-14T03:34:56;10.00;99.90
9564;DHT22;4820;50.870;4.702;2023-03-14T03:37:22;10.00;99.90
9564;DHT22;4820;50.870;4.702;2023-03-14T03:39:50;10.00;99.90
9564;DHT22;4820;50.870;4.702;2023-03-14T03:42:17;10.00;99.90
9564;DHT22;4820;50.870;4.702;2023-03-14T03:44:43;10.00;99.90
9564;DHT22;4820;50.870;4.702;2023-03-14T03:47:10;10.00;99.90
9564;DHT22;4820;50.870;4.702;2023-03-14T03:49:36;10.00;99.90
9564;DHT22;4820;50.870;4.702;2023-03-14T03:52:01;10.00;99.90
9564;DHT22;4820;50.870;4.702;2023-03-14T03:54:27;10.00;99.90
9564;DHT22;4820;50.870;4.702;2023-03-14T03:56:54;10.00;99.90
9564;DHT22;4820;50.870;4.702;2023-03-14T03:59:21;10.00;99.90
9564;DHT22;4820;50.870;4.702;2023-03-14T04:01:47;10.00;99.90
9564;DHT22;4820;50.870;4.702;2023-03-14T04:04:13;10.00;99.90
9564;DHT22;4820;50.870;4.702;2023-03-14T04:06:39;10.00;99.90
9564;DHT22;4820;50.870;4.702;2023-03-14T04:09:08;10.00;99.90
9564;DHT22;4820;50.870;4.702;2023-03-14T04:11:33;10.00;99.90
9564;DHT22;4820;50.870;4.702;2023-03-14T04:13:59;10.00;99.90
9564;DHT22;4820;50.870;4.702;2023-03-14T04:16:25;10.00;99.90
9564;DHT22;4820;50.870;4.702;2023-03-14T04:18:51;10.00;99.90
9564;DHT22;4820;50.870;4.702;2023-03-14T04:21:18;10.00;99.90
9564;DHT22;4820;50.870;4.702;2023-03-14T04:23:44;10.00;99.90
9564;DHT22;4820;50.870;4.702;2023-03-14T04:26:10;10.10;99.90
9564;DHT22;4820;50.870;4.702;2023-03-14T04:28:37;10.10;99.90
9564;DHT22;4820;50.870;4.702;2023-03-14T04:31:09;10.10;99.90
9564;DHT22;4820;50.870;4.702;2023-03-14T04:33:35;10.10;99.90
9564;DHT22;4820;50.870;4.702;2023-03-14T04:36:03;10.20;99.90
9564;DHT22;4820;50.870;4.702;2023-03-14T04:38:29;10.10;99.90
9564;DHT22;4820;50.870;4.702;2023-03-14T04:40:55;10.20;99.90
9564;DHT22;4820;50.870;4.702;2023-03-14T04:43:20;10.20;99.90
9564;DHT22;4820;50.870;4.702;2023-03-14T04:45:46;10.10;99.90
9564;DHT22;4820;50.870;4.702;2023-03-14T04:48:12;10.20;99.90
9564;DHT22;4820;50.870;4.702;2023-03-14T04:50:38;10.20;99.90
9564;DHT22;4820;50.870;4.702;2023-03-14T04:53:06;10.10;99.90
9564;DHT22;4820;50.870;4.702;2023-03-14T04:55:32;10.20;99.90
9564;DHT22;4820;50.870;4.702;2023-03-14T04:58:01;10.10;99.90
9564;DHT22;4820;50.870;4.702;2023-03-14T05:00:26;10.10;99.90
9564;DHT22;4820;50.870;4.702;2023-03-14T05:02:52;10.10;99.90
9564;DHT22;4820;50.870;4.702;2023-03-14T05:05:19;10.10;99.90
9564;DHT22;4820;50.870;4.702;2023-03-14T05:07:44;10.10;99.90
9564;DHT22;4820;50.870;4.702;2023-03-14T05:10:10;10.10;99.90
9564;DHT22;4820;50.870;4.702;2023-03-14T05:12:36;10.20;99.90
9564;DHT22;4820;50.870;4.702;2023-03-14T05:15:02;10.20;99.90
9564;DHT22;4820;50.870;4.702;2023-03-14T05:17:31;10.20;99.90
9564;DHT22;4820;50.870;4.702;2023-03-14T05:19:59;10.20;99.90
9564;DHT22;4820;50.870;4.702;2023-03-14T05:22:24;10.20;99.90
9564;DHT22;4820;50.870;4.702;2023-03-14T05:24:50;10.30;99.90
9564;DHT22;4820;50.870;4.702;2023-03-14T05:27:17;10.30;99.90
9564;DHT22;4820;50.870;4.702;2023-03-14T05:29:43;10.30;99.90
9564;DHT22;4820;50.870;4.702;2023-03-14T05:32:09;10.30;99.90
9564;DHT22;4820;50.870;4.702;2023-03-14T05:34:35;10.30;99.90
9564;DHT22;4820;50.870;4.702;2023-03-14T05:37:04;10.40;99.90
9564;DHT22;4820;50.870;4.702;2023-03-14T05:39:29;10.50;99.90
9564;DHT22;4820;50.870;4.702;2023-03-14T05:41:55;10.30;99.90
9564;DHT22;4820;50.870;4.702;2023-03-14T05:44:22;10.30;99.90
9564;DHT22;4820;50.870;4.702;2023-03-14T05:46:49;10.30;99.90
9564;DHT22;4820;50.870;4.702;2023-03-14T05:49:14;10.40;99.90
9564;DHT22;4820;50.870;4.702;2023-03-14T05:51:40;10.40;99.90
9564;DHT22;4820;50.870;4.702;2023-03-14T05:54:06;10.50;99.90
9564;DHT22;4820;50.870;4.702;2023-03-14T05:56:32;10.40;99.90
9564;DHT22;4820;50.870;4.702;2023-03-14T05:58:58;10.40;99.90
9564;DHT22;4820;50.870;4.702;2023-03-14T06:01:25;10.40;99.90
9564;DHT22;4820;50.870;4.702;2023-03-14T06:03:51;10.40;99.90
9564;DHT22;4820;50.870;4.702;2023-03-14T06:06:17;10.40;99.90
9564;DHT22;4820;50.870;4.702;2023-03-14T06:08:44;10.40;99.90
9564;DHT22;4820;50.870;4.702;2023-03-14T06:11:09;10.40;99.90
9564;DHT22;4820;50.870;4.702;2023-03-14T06:13:35;10.40;99.90
9564;DHT22;4820;50.870;4.702;2023-03-14T06:16:01;10.40;99.90
9564;DHT22;4820;50.870;4.702;2023-03-14T06:18:26;10.40;99.90
9564;DHT22;4820;50.870;4.702;2023-03-14T06:20:56;10.40;99.90
9564;DHT22;4820;50.870;4.702;2023-03-14T06:23:22;10.50;99.90
9564;DHT22;4820;50.870;4.702;2023-03-14T06:25:49;10.50;99.90
9564;DHT22;4820;50.870;4.702;2023-03-14T06:28:15;10.50;99.90
9564;DHT22;4820;50.870;4.702;2023-03-14T06:30:41;10.50;99.90
9564;DHT22;4820;50.870;4.702;2023-03-14T06:33:08;10.50;99.90
9564;DHT22;4820;50.870;4.702;2023-03-14T06:35:34;10.50;99.90
9564;DHT22;4820;50.870;4.702;2023-03-14T06:37:59;10.50;99.90
9564;DHT22;4820;50.870;4.702;2023-03-14T06:40:26;10.50;99.90
9564;DHT22;4820;50.870;4.702;2023-03-14T06:42:53;10.60;99.90
9564;DHT22;4820;50.870;4.702;2023-03-14T06:45:19;10.60;99.90
9564;DHT22;4820;50.870;4.702;2023-03-14T06:47:45;10.60;99.90
9564;DHT22;4820;50.870;4.702;2023-03-14T06:50:11;10.60;99.90
9564;DHT22;4820;50.870;4.702;2023-03-14T06:52:37;10.60;99.90
9564;DHT22;4820;50.870;4.702;2023-03-14T06:55:12;10.60;99.90
9564;DHT22;4820;50.870;4.702;2023-03-14T06:57:38;10.60;99.90
9564;DHT22;4820;50.870;4.702;2023-03-14T07:00:04;10.60;99.90
9564;DHT22;4820;50.870;4.702;2023-03-14T07:02:30;10.60;99.90
9564;DHT22;4820;50.870;4.702;2023-03-14T07:04:56;10.60;99.90
9564;DHT22;4820;50.870;4.702;2023-03-14T07:07:22;10.60;99.90
9564;DHT22;4820;50.870;4.702;2023-03-14T07:09:49;10.60;99.90
9564;DHT22;4820;50.870;4.702;2023-03-14T07:12:15;10.50;99.90
9564;DHT22;4820;50.870;4.702;2023-03-14T07:14:47;10.30;99.90
9564;DHT22;4820;50.870;4.702;2023-03-14T07:17:12;10.00;99.90
9564;DHT22;4820;50.870;4.702;2023-03-14T07:19:38;9.70;99.90
9564;DHT22;4820;50.870;4.702;2023-03-14T07:22:05;9.50;99.90
9564;DHT22;4820;50.870;4.702;2023-03-14T07:24:32;9.30;99.90
9564;DHT22;4820;50.870;4.702;2023-03-14T07:26:59;9.10;99.90
9564;DHT22;4820;50.870;4.702;2023-03-14T07:29:25;9.00;99.90
9564;DHT22;4820;50.870;4.702;2023-03-14T07:31:51;8.80;99.90
9564;DHT22;4820;50.870;4.702;2023-03-14T07:34:17;8.80;99.90
9564;DHT22;4820;50.870;4.702;2023-03-14T07:36:44;8.60;99.90
9564;DHT22;4820;50.870;4.702;2023-03-14T07:39:10;8.60;99.90
9564;DHT22;4820;50.870;4.702;2023-03-14T07:41:35;8.50;99.90
9564;DHT22;4820;50.870;4.702;2023-03-14T07:44:01;8.20;99.90
9564;DHT22;4820;50.870;4.702;2023-03-14T07:46:27;8.10;99.90
9564;DHT22;4820;50.870;4.702;2023-03-14T07:48:52;8.00;99.90
9564;DHT22;4820;50.870;4.702;2023-03-14T07:51:18;7.90;99.90
9564;DHT22;4820;50.870;4.702;2023-03-14T07:53:44;7.90;99.90
9564;DHT22;4820;50.870;4.702;2023-03-14T07:56:11;7.90;99.90
9564;DHT22;4820;50.870;4.702;2023-03-14T07:58:36;7.80;99.90
9564;DHT22;4820;50.870;4.702;2023-03-14T08:01:02;7.80;99.90
9564;DHT22;4820;50.870;4.702;2023-03-14T08:03:28;7.80;99.90
9564;DHT22;4820;50.870;4.702;2023-03-14T08:05:54;7.80;99.90
9564;DHT22;4820;50.870;4.702;2023-03-14T08:08:20;7.70;99.90
9564;DHT22;4820;50.870;4.702;2023-03-14T08:10:46;7.70;99.90
9564;DHT22;4820;50.870;4.702;2023-03-14T08:13:12;7.80;99.90
9564;DHT22;4820;50.870;4.702;2023-03-14T08:15:38;7.80;99.90
9564;DHT22;4820;50.870;4.702;2023-03-14T08:18:04;7.80;99.90
9564;DHT22;4820;50.870;4.702;2023-03-14T08:20:30;7.90;99.90
9564;DHT22;4820;50.870;4.702;2023-03-14T08:23:00;7.90;99.90
9564;DHT22;4820;50.870;4.702;2023-03-14T08:25:27;7.90;99.90
9564;DHT22;4820;50.870;4.702;2023-03-14T08:27:53;8.00;99.90
9564;DHT22;4820;50.870;4.702;2023-03-14T08:30:21;8.00;99.90
9564;DHT22;4820;50.870;4.702;2023-03-14T08:32:47;8.10;99.90
9564;DHT22;4820;50.870;4.702;2023-03-14T08:35:14;8.10;99.90
9564;DHT22;4820;50.870;4.702;2023-03-14T08:37:40;8.10;99.90
9564;DHT22;4820;50.870;4.702;2023-03-14T08:40:08;8.10;99.90
9564;DHT22;4820;50.870;4.702;2023-03-14T08:42:39;8.20;99.90
9564;DHT22;4820;50.870;4.702;2023-03-14T08:45:06;8.20;99.90
9564;DHT22;4820;50.870;4.702;2023-03-14T08:47:32;8.10;99.90
9564;DHT22;4820;50.870;4.702;2023-03-14T08:49:57;8.20;99.90
9564;DHT22;4820;50.870;4.702;2023-03-14T08:52:23;8.10;99.90
9564;DHT22;4820;50.870;4.702;2023-03-14T08:54:49;8.10;99.90
9564;DHT22;4820;50.870;4.702;2023-03-14T08:57:16;8.00;99.90
9564;DHT22;4820;50.870;4.702;2023-03-14T08:59:42;8.00;99.90
9564;DHT22;4820;50.870;4.702;2023-03-14T09:02:11;8.00;99.90
9564;DHT22;4820;50.870;4.702;2023-03-14T09:04:37;8.00;99.90
9564;DHT22;4820;50.870;4.702;2023-03-14T09:07:03;7.90;99.90
9564;DHT22;4820;50.870;4.702;2023-03-14T09:09:28;8.00;99.90
9564;DHT22;4820;50.870;4.702;2023-03-14T09:11:55;8.00;99.90
9564;DHT22;4820;50.870;4.702;2023-03-14T09:14:21;8.00;99.90
9564;DHT22;4820;50.870;4.702;2023-03-14T09:16:47;8.10;99.90
9564;DHT22;4820;50.870;4.702;2023-03-14T09:19:12;8.20;99.90
9564;DHT22;4820;50.870;4.702;2023-03-14T09:21:41;8.40;99.90
9564;DHT22;4820;50.870;4.702;2023-03-14T09:24:07;8.40;99.90
9564;DHT22;4820;50.870;4.702;2023-03-14T09:26:35;8.50;99.90
9564;DHT22;4820;50.870;4.702;2023-03-14T09:29:01;8.50;99.90
9564;DHT22;4820;50.870;4.702;2023-03-14T09:31:26;8.50;99.90
9564;DHT22;4820;50.870;4.702;2023-03-14T09:33:53;8.50;99.90
9564;DHT22;4820;50.870;4.702;2023-03-14T09:36:18;8.40;99.90
9564;DHT22;4820;50.870;4.702;2023-03-14T09:38:44;8.30;99.90
9564;DHT22;4820;50.870;4.702;2023-03-14T09:41:17;8.30;99.90
9564;DHT22;4820;50.870;4.702;2023-03-14T09:43:45;8.30;99.90
9564;DHT22;4820;50.870;4.702;2023-03-14T09:46:12;8.30;99.90
9564;DHT22;4820;50.870;4.702;2023-03-14T09:48:39;8.50;99.90
9564;DHT22;4820;50.870;4.702;2023-03-14T09:51:17;8.60;99.90
9564;DHT22;4820;50.870;4.702;2023-03-14T09:53:47;8.60;99.90
9564;DHT22;4820;50.870;4.702;2023-03-14T09:58:51;8.50;99.90
9564;DHT22;4820;50.870;4.702;2023-03-14T10:01:25;8.30;99.90
9564;DHT22;4820;50.870;4.702;2023-03-14T10:03:54;8.20;99.90
9564;DHT22;4820;50.870;4.702;2023-03-14T10:06:21;8.00;99.90
9564;DHT22;4820;50.870;4.702;2023-03-14T10:08:48;7.90;99.90
9564;DHT22;4820;50.870;4.702;2023-03-14T10:11:18;8.00;99.90
9564;DHT22;4820;50.870;4.702;2023-03-14T10:13:50;8.00;99.90
9564;DHT22;4820;50.870;4.702;2023-03-14T10:16:32;7.90;99.90
9564;DHT22;4820;50.870;4.702;2023-03-14T10:19:04;8.00;99.90
9564;DHT22;4820;50.870;4.702;2023-03-14T10:21:35;8.20;99.90
9564;DHT22;4820;50.870;4.702;2023-03-14T10:24:09;8.30;99.90
9564;DHT22;4820;50.870;4.702;2023-03-14T10:26:36;8.20;99.90
9564;DHT22;4820;50.870;4.702;2023-03-14T10:29:12;8.10;99.90
9564;DHT22;4820;50.870;4.702;2023-03-14T10:31:49;8.00;99.90
9564;DHT22;4820;50.870;4.702;2023-03-14T10:34:21;8.00;99.90
9564;DHT22;4820;50.870;4.702;2023-03-14T10:36:52;7.80;99.90
9564;DHT22;4820;50.870;4.702;2023-03-14T10:39:22;7.70;99.90
9564;DHT22;4820;50.870;4.702;2023-03-14T10:41:53;7.70;99.90
9564;DHT22;4820;50.870;4.702;2023-03-14T10:44:22;7.50;99.90
9564;DHT22;4820;50.870;4.702;2023-03-14T10:46:58;7.40;99.90
9564;DHT22;4820;50.870;4.702;2023-03-14T10:49:28;7.40;99.90
9564;DHT22;4820;50.870;4.702;2023-03-14T10:51:54;7.40;99.90
9564;DHT22;4820;50.870;4.702;2023-03-14T10:54:22;7.40;99.90
9564;DHT22;4820;50.870;4.702;2023-03-14T10:56:59;7.30;99.90
9564;DHT22;4820;50.870;4.702;2023-03-14T10:59:36;7.20;99.90
9564;DHT22;4820;50.870;4.702;2023-03-14T11:05:03;7.30;99.90
9564;DHT22;4820;50.870;4.702;2023-03-14T11:07:40;7.30;99.90
9564;DHT22;4820;50.870;4.702;2023-03-14T11:15:34;7.60;99.90
9564;DHT22;4820;50.870;4.702;2023-03-14T11:26:58;7.20;99.90
9564;DHT22;4820;50.870;4.702;2023-03-14T11:29:36;7.00;99.90
9564;DHT22;4820;50.870;4.702;2023-03-14T11:32:08;6.90;99.90
9564;DHT22;4820;50.870;4.702;2023-03-14T11:34:41;6.80;99.90
9564;DHT22;4820;50.870;4.702;2023-03-14T11:39:56;6.70;99.90
9564;DHT22;4820;50.870;4.702;2023-03-14T11:42:23;6.70;99.90
9564;DHT22;4820;50.870;4.702;2023-03-14T11:44:50;6.80;99.90
9564;DHT22;4820;50.870;4.702;2023-03-14T11:47:26;6.90;99.90
9564;DHT22;4820;50.870;4.702;2023-03-14T11:50:04;6.90;99.90
9564;DHT22;4820;50.870;4.702;2023-03-14T11:52:37;7.20;99.90
9564;DHT22;4820;50.870;4.702;2023-03-14T11:55:17;7.40;99.90
9564;DHT22;4820;50.870;4.702;2023-03-14T11:57:46;7.40;99.90
9564;DHT22;4820;50.870;4.702;2023-03-14T12:00:18;7.40;99.90
9564;DHT22;4820;50.870;4.702;2023-03-14T12:05:56;7.40;99.90
9564;DHT22;4820;50.870;4.702;2023-03-14T12:11:01;7.40;99.90
9564;DHT22;4820;50.870;4.702;2023-03-14T12:13:32;7.20;99.90
9564;DHT22;4820;50.870;4.702;2023-03-14T12:16:00;7.10;99.90
9564;DHT22;4820;50.870;4.702;2023-03-14T12:18:33;7.00;99.90
9564;DHT22;4820;50.870;4.702;2023-03-14T12:21:02;7.10;99.90
9564;DHT22;4820;50.870;4.702;2023-03-14T12:26:25;7.40;99.90
9564;DHT22;4820;50.870;4.702;2023-03-14T12:31:41;7.50;99.90
9564;DHT22;4820;50.870;4.702;2023-03-14T12:45:24;7.10;99.90
9564;DHT22;4820;50.870;4.702;2023-03-14T12:48:00;7.10;99.90
9564;DHT22;4820;50.870;4.702;2023-03-14T12:50:44;7.00;99.90
9564;DHT22;4820;50.870;4.702;2023-03-14T12:58:39;7.10;99.90
9564;DHT22;4820;50.870;4.702;2023-03-14T13:01:16;7.10;99.90
9564;DHT22;4820;50.870;4.702;2023-03-14T13:03:52;7.20;99.90
9564;DHT22;4820;50.870;4.702;2023-03-14T13:06:47;7.30;99.90
9564;DHT22;4820;50.870;4.702;2023-03-14T13:11:56;7.50;99.90
9564;DHT22;4820;50.870;4.702;2023-03-14T13:14:28;7.50;99.90
9564;DHT22;4820;50.870;4.702;2023-03-14T13:16:54;7.50;99.90
9564;DHT22;4820;50.870;4.702;2023-03-14T13:19:27;7.60;99.90
9564;DHT22;4820;50.870;4.702;2023-03-14T13:22:03;7.70;99.90
9564;DHT22;4820;50.870;4.702;2023-03-14T13:24:28;7.80;99.90
9564;DHT22;4820;50.870;4.702;2023-03-14T13:26:57;7.80;99.90
9564;DHT22;4820;50.870;4.702;2023-03-14T13:29:31;7.80;99.90
9564;DHT22;4820;50.870;4.702;2023-03-14T13:31:59;7.80;99.90
9564;DHT22;4820;50.870;4.702;2023-03-14T13:34:28;7.80;99.90
9564;DHT22;4820;50.870;4.702;2023-03-14T13:36:55;7.70;99.90
9564;DHT22;4820;50.870;4.702;2023-03-14T13:39:25;7.60;99.90
9564;DHT22;4820;50.870;4.702;2023-03-14T13:42:01;7.60;99.90
9564;DHT22;4820;50.870;4.702;2023-03-14T13:44:37;7.50;99.90
9564;DHT22;4820;50.870;4.702;2023-03-14T13:47:10;7.30;99.90
9564;DHT22;4820;50.870;4.702;2023-03-14T13:49:38;7.10;99.90
9564;DHT22;4820;50.870;4.702;2023-03-14T13:52:22;6.90;99.90
9564;DHT22;4820;50.870;4.702;2023-03-14T13:54:48;6.70;99.90
9564;DHT22;4820;50.870;4.702;2023-03-14T15:50:59;6.70;99.90
9564;DHT22;4820;50.870;4.702;2023-03-14T15:53:26;7.40;99.90
9564;DHT22;4820;50.870;4.702;2023-03-14T15:55:51;7.50;99.90
9564;DHT22;4820;50.870;4.702;2023-03-14T15:58:19;7.70;99.90
9564;DHT22;4820;50.870;4.702;2023-03-14T16:00:46;7.80;99.90
9564;DHT22;4820;50.870;4.702;2023-03-14T16:03:12;7.90;99.90
9564;DHT22;4820;50.870;4.702;2023-03-14T16:05:39;7.90;99.90
9564;DHT22;4820;50.870;4.702;2023-03-14T16:08:06;7.90;99.90
9564;DHT22;4820;50.870;4.702;2023-03-14T16:10:32;7.90;99.90
9564;DHT22;4820;50.870;4.702;2023-03-14T16:12:58;7.90;99.90
9564;DHT22;4820;50.870;4.702;2023-03-14T16:15:24;7.80;99.90
9564;DHT22;4820;50.870;4.702;2023-03-14T16:17:53;7.80;99.90
9564;DHT22;4820;50.870;4.702;2023-03-14T16:20:20;7.70;99.90
9564;DHT22;4820;50.870;4.702;2023-03-14T16:22:46;7.70;99.90
9564;DHT22;4820;50.870;4.702;2023-03-14T16:25:13;7.70;99.90
9564;DHT22;4820;50.870;4.702;2023-03-14T16:27:39;7.70;99.90
9564;DHT22;4820;50.870;4.702;2023-03-14T16:30:07;7.70;99.90
9564;DHT22;4820;50.870;4.702;2023-03-14T16:32:33;7.60;99.90
9564;DHT22;4820;50.870;4.702;2023-03-14T16:34:59;7.60;99.90
9564;DHT22;4820;50.870;4.702;2023-03-14T16:37:25;7.60;99.90
9564;DHT22;4820;50.870;4.702;2023-03-14T16:39:52;7.50;99.90
9564;DHT22;4820;50.870;4.702;2023-03-14T16:42:18;7.50;99.90
9564;DHT22;4820;50.870;4.702;2023-03-14T16:44:44;7.50;99.90
9564;DHT22;4820;50.870;4.702;2023-03-14T16:47:10;7.40;99.90
9564;DHT22;4820;50.870;4.702;2023-03-14T16:49:36;7.40;99.90
9564;DHT22;4820;50.870;4.702;2023-03-14T16:52:01;7.40;99.90
9564;DHT22;4820;50.870;4.702;2023-03-14T16:54:27;7.40;99.90
9564;DHT22;4820;50.870;4.702;2023-03-14T16:56:53;7.30;99.90
9564;DHT22;4820;50.870;4.702;2023-03-14T16:59:19;7.40;99.90
9564;DHT22;4820;50.870;4.702;2023-03-14T17:01:44;7.30;99.90
9564;DHT22;4820;50.870;4.702;2023-03-14T17:04:11;7.30;99.90
9564;DHT22;4820;50.870;4.702;2023-03-14T17:06:38;7.20;99.90
9564;DHT22;4820;50.870;4.702;2023-03-14T17:09:04;7.20;99.90
9564;DHT22;4820;50.870;4.702;2023-03-14T17:11:31;7.20;99.90
9564;DHT22;4820;50.870;4.702;2023-03-14T17:13:59;7.20;99.90
9564;DHT22;4820;50.870;4.702;2023-03-14T17:16:24;7.20;99.90
9564;DHT22;4820;50.870;4.702;2023-03-14T17:18:50;7.20;99.90
9564;DHT22;4820;50.870;4.702;2023-03-14T17:21:16;7.20;99.90
9564;DHT22;4820;50.870;4.702;2023-03-14T18:43:02;5.70;99.90
9564;DHT22;4820;50.870;4.702;2023-03-14T18:45:29;6.20;99.90
9564;DHT22;4820;50.870;4.702;2023-03-14T18:47:55;6.30;99.90
9564;DHT22;4820;50.870;4.702;2023-03-14T18:50:21;6.40;99.90
9564;DHT22;4820;50.870;4.702;2023-03-14T18:52:46;6.30;99.90
9564;DHT22;4820;50.870;4.702;2023-03-14T18:55:12;6.30;99.90
9564;DHT22;4820;50.870;4.702;2023-03-14T18:57:40;6.30;99.90
9564;DHT22;4820;50.870;4.702;2023-03-14T19:00:07;6.30;99.90
9564;DHT22;4820;50.870;4.702;2023-03-14T19:02:37;6.30;99.90
9564;DHT22;4820;50.870;4.702;2023-03-14T19:05:02;6.30;99.90
9564;DHT22;4820;50.870;4.702;2023-03-14T19:07:28;6.30;99.90
9564;DHT22;4820;50.870;4.702;2023-03-14T19:09:54;6.30;99.90
9564;DHT22;4820;50.870;4.702;2023-03-14T19:12:22;6.30;99.90
9564;DHT22;4820;50.870;4.702;2023-03-14T19:14:48;6.30;99.90
9564;DHT22;4820;50.870;4.702;2023-03-14T19:17:13;6.30;99.90
9564;DHT22;4820;50.870;4.702;2023-03-14T19:19:39;6.30;99.90
9564;DHT22;4820;50.870;4.702;2023-03-14T19:22:06;6.20;99.90
9564;DHT22;4820;50.870;4.702;2023-03-14T19:24:31;6.10;99.90
9564;DHT22;4820;50.870;4.702;2023-03-14T19:26:59;6.10;99.90
9564;DHT22;4820;50.870;4.702;2023-03-14T19:29:26;6.10;99.90
9564;DHT22;4820;50.870;4.702;2023-03-14T19:31:54;6.00;99.90
9564;DHT22;4820;50.870;4.702;2023-03-14T19:34:20;6.00;99.90
9564;DHT22;4820;50.870;4.702;2023-03-14T19:36:47;5.90;99.90
9564;DHT22;4820;50.870;4.702;2023-03-14T19:39:12;5.90;99.90
9564;DHT22;4820;50.870;4.702;2023-03-14T19:41:38;5.80;99.90
9564;DHT22;4820;50.870;4.702;2023-03-14T19:44:04;5.80;99.90
9564;DHT22;4820;50.870;4.702;2023-03-14T19:46:30;5.70;99.90
9564;DHT22;4820;50.870;4.702;2023-03-14T19:48:57;5.70;99.90
9564;DHT22;4820;50.870;4.702;2023-03-14T19:51:24;5.60;99.90
9564;DHT22;4820;50.870;4.702;2023-03-14T19:53:50;5.60;99.90
9564;DHT22;4820;50.870;4.702;2023-03-14T19:56:16;5.60;99.90
9564;DHT22;4820;50.870;4.702;2023-03-14T19:58:44;5.50;99.90
9564;DHT22;4820;50.870;4.702;2023-03-14T20:01:10;5.50;99.90
9564;DHT22;4820;50.870;4.702;2023-03-14T20:03:37;5.50;99.90
9564;DHT22;4820;50.870;4.702;2023-03-14T20:06:05;5.40;99.90
9564;DHT22;4820;50.870;4.702;2023-03-14T20:08:31;5.40;99.90
9564;DHT22;4820;50.870;4.702;2023-03-14T20:10:56;5.40;99.90
9564;DHT22;4820;50.870;4.702;2023-03-14T20:13:22;5.40;99.90
9564;DHT22;4820;50.870;4.702;2023-03-14T20:15:48;5.30;99.90
9564;DHT22;4820;50.870;4.702;2023-03-14T20:18:14;5.30;99.90
9564;DHT22;4820;50.870;4.702;2023-03-14T20:20:40;5.30;99.90
9564;DHT22;4820;50.870;4.702;2023-03-14T20:23:06;5.30;99.90
9564;DHT22;4820;50.870;4.702;2023-03-14T20:25:32;5.20;99.90
9564;DHT22;4820;50.870;4.702;2023-03-14T20:28:00;5.10;99.90